No particular awareness of the weather is required.    There are no Weather-warnings


Meteo18 Weather Cam more information Meteo18 Weather Cam


Thunder radar more information blitzortung!


Rain radar more information rain snow radar


Visit our other weather sites:

Template documentation
and downloads

And another site



Weather Underground History page Text

Daily Summary for November 29, 2017 Units:  English    Metric   Both
« Previous Day
Next Day »
Daily Weekly Monthly Yearly Custom
  High: Low: Average:
Temperature: 39.6 °F 31.6 °F 35.6 °F
Dew Point: 37.9 °F 30.6 °F 34.3 °F
Humidity: 97 % 91 % 95 %
Wind Speed: 7 mph 0 mph 1.8 mph
Wind Gust: 10 mph - -
Wind:- - West
Pressure: 29.9 in 29.8 in -
Precipitation: 0.02 in    
Historical Graphs
 
 
Tabular Data for November 29, 2017
Time Temperature Dew Point Pressure Wind Wind Speed Wind Gust Humidity Rainfall Rate (Hourly)
00:02 39.6 °F 37.9 °F 29.8 in Calm   3 mph 94 % 0 in
00:27 38.7 °F 37 °F 29.8 in Calm   1 mph 94 % 0 in
00:32 38.5 °F 36.9 °F 29.8 in Calm   1 mph 94 % 0 in
00:37 38.3 °F 36.7 °F 29.8 in Calm   1 mph 94 % 0 in
00:42 38.1 °F 36.9 °F 29.8 in Calm     95 % 0 in
00:47 37.9 °F 36.7 °F 29.8 in Calm   1 mph 95 % 0 in
00:52 37.8 °F 36.5 °F 29.8 in Calm   1 mph 95 % 0 in
01:12 37.9 °F 36.7 °F 29.8 in Calm   3 mph 95 % 0.01 in
01:17 37.9 °F 36.7 °F 29.8 in West 3 mph 6 mph 95 % 0.01 in
01:42 37.6 °F 36.3 °F 29.8 in Calm   3 mph 95 % 0.01 in
01:52 37.6 °F 36.3 °F 29.8 in WNW 1 mph 1 mph 95 % 0.01 in
02:02 37.4 °F 36.1 °F 29.8 in Calm   1 mph 95 % 0 in
02:12 37.4 °F 36.1 °F 29.8 in Calm   1 mph 95 % 0 in
02:22 37.2 °F 36 °F 29.8 in Calm     95 % 0 in
02:27 37.2 °F 36 °F 29.8 in Calm   1 mph 95 % 0 in
02:32 37.2 °F 36 °F 29.8 in Calm   1 mph 95 % 0 in
02:37 37.2 °F 36 °F 29.8 in Calm   1 mph 95 % 0 in
02:42 37.4 °F 36.1 °F 29.8 in Calm   1 mph 95 % 0 in
02:52 37.2 °F 36 °F 29.8 in Calm   1 mph 95 % 0 in
03:02 37.6 °F 36.5 °F 29.8 in NW 1 mph 2 mph 96 % 0 in
03:07 37.6 °F 36.3 °F 29.8 in Calm   2 mph 95 % 0 in
03:12 37.4 °F 36.1 °F 29.8 in WNW 1 mph 2 mph 95 % 0 in
03:17 37.4 °F 36.1 °F 29.8 in WNW 1 mph 2 mph 95 % 0 in
03:22 37.2 °F 36 °F 29.8 in NW 1 mph 2 mph 95 % 0 in
03:27 37.2 °F 36 °F 29.8 in Calm   2 mph 95 % 0 in
03:32 37.2 °F 36 °F 29.8 in NW 2 mph 2 mph 95 % 0 in
03:42 37.6 °F 36.3 °F 29.8 in Calm   4 mph 95 % 0 in
03:47 37.6 °F 36.3 °F 29.8 in Calm   4 mph 95 % 0 in
04:02 37.6 °F 36.3 °F 29.8 in NNW 2 mph 3 mph 95 % 0 in
04:22 37 °F 35.8 °F 29.8 in North 2 mph 4 mph 95 % 0 in
04:32 36.9 °F 35.6 °F 29.8 in NNW 2 mph 3 mph 95 % 0 in
04:37 36.7 °F 35.4 °F 29.8 in North 2 mph 3 mph 95 % 0 in
04:42 36.5 °F 35.2 °F 29.8 in West 3 mph 3 mph 95 % 0 in
04:47 36.3 °F 35.1 °F 29.8 in NW 1 mph 4 mph 95 % 0 in
04:52 36.1 °F 34.9 °F 29.8 in NW 1 mph 4 mph 95 % 0 in
05:02 35.4 °F 34.2 °F 29.8 in NNW 1 mph 4 mph 95 % 0 in
05:07 35.4 °F 34.2 °F 29.8 in NW 2 mph 3 mph 95 % 0 in
05:12 35.2 °F 34 °F 29.8 in NW 2 mph 3 mph 95 % 0 in
05:17 35.2 °F 34 °F 29.8 in WNW 2 mph 3 mph 95 % 0 in
05:22 35.2 °F 34 °F 29.8 in Calm   3 mph 95 % 0 in
05:32 34.3 °F 33.1 °F 29.8 in Calm   3 mph 95 % 0 in
05:37 34 °F 32.7 °F 29.8 in NW 1 mph 2 mph 95 % 0 in
05:42 34 °F 32.9 °F 29.8 in NNW 1 mph 2 mph 96 % 0 in
05:52 34.2 °F 33.1 °F 29.8 in North 1 mph 3 mph 96 % 0 in
05:57 34.2 °F 33.1 °F 29.8 in NW 1 mph 3 mph 96 % 0 in
06:02 33.6 °F 32.4 °F 29.8 in WNW 1 mph 3 mph 95 % 0 in
06:12 33.1 °F 31.8 °F 29.8 in Calm   3 mph 95 % 0 in
06:32 33.1 °F 32 °F 29.8 in North 1 mph 3 mph 96 % 0 in
06:42 33.1 °F 32 °F 29.8 in Calm   2 mph 96 % 0 in
06:57 33.3 °F 32.2 °F 29.8 in Calm   1 mph 96 % 0 in
07:02 33.3 °F 32.2 °F 29.8 in Calm   1 mph 96 % 0 in
07:12 33.1 °F 32 °F 29.8 in Calm   1 mph 96 % 0 in
07:32 33.1 °F 32 °F 29.8 in Calm     96 % 0 in
07:37 33.1 °F 32 °F 29.8 in Calm     96 % 0 in
07:42 33.1 °F 32.4 °F 29.8 in Calm     97 % 0 in
07:47 33.1 °F 32 °F 29.8 in Calm   1 mph 96 % 0 in
07:52 33.1 °F 32 °F 29.8 in Calm   1 mph 96 % 0 in
08:02 33.1 °F 32 °F 29.8 in Calm   1 mph 96 % 0 in
08:07 32.9 °F 31.8 °F 29.8 in Calm   1 mph 96 % 0 in
08:12 32.9 °F 31.8 °F 29.8 in Calm   1 mph 96 % 0 in
08:22 32.9 °F 31.8 °F 29.8 in Calm   1 mph 96 % 0 in
08:32 33.1 °F 32.4 °F 29.8 in Calm     97 % 0 in
08:37 33.1 °F 32.4 °F 29.8 in SE 1 mph   97 % 0 in
08:42 33.1 °F 32.4 °F 29.8 in Calm     97 % 0 in
08:52 33.1 °F 32.4 °F 29.8 in Calm   1 mph 97 % 0 in
09:02 33.1 °F 32.4 °F 29.8 in Calm   1 mph 97 % 0 in
09:07 33.3 °F 32.5 °F 29.8 in SSW 1 mph   97 % 0 in
09:12 33.1 °F 32.4 °F 29.8 in Calm     97 % 0 in
09:17 33.1 °F 32.4 °F 29.8 in Calm   1 mph 97 % 0 in
09:52 32.5 °F 31.5 °F 29.8 in Calm   3 mph 96 % 0 in
10:02 32.5 °F 31.8 °F 29.8 in SW 1 mph 3 mph 97 % 0 in
10:12 32.4 °F 31.3 °F 29.8 in Calm   2 mph 96 % 0 in
10:17 32.4 °F 31.3 °F 29.8 in WSW 1 mph 4 mph 96 % 0 in
10:32 32.2 °F 31.1 °F 29.8 in SSW 1 mph 2 mph 96 % 0 in
10:37 31.8 °F 30.7 °F 29.8 in SSW 2 mph 3 mph 96 % 0 in
10:57 31.6 °F 30.6 °F 29.8 in SW 4 mph 5 mph 96 % 0 in
11:02 31.6 °F 30.9 °F 29.8 in WSW 1 mph 5 mph 97 % 0 in
11:12 31.8 °F 31.1 °F 29.8 in WSW 1 mph 5 mph 97 % 0 in
11:22 32.4 °F 31.6 °F 29.8 in Calm   6 mph 97 % 0 in
11:27 32.5 °F 31.8 °F 29.8 in WSW 1 mph 4 mph 97 % 0 in
11:42 33.3 °F 32.5 °F 29.8 in WSW 1 mph 4 mph 97 % 0 in
11:52 33.4 °F 32.7 °F 29.8 in WSW 4 mph 4 mph 97 % 0 in
11:57 33.3 °F 32.5 °F 29.8 in SSW 3 mph 5 mph 97 % 0 in
12:02 33.4 °F 32.7 °F 29.8 in SW 1 mph 5 mph 97 % 0 in
12:27 34.2 °F 33.4 °F 29.8 in SW 4 mph 4 mph 97 % 0 in
12:32 34.2 °F 33.4 °F 29.8 in SW 4 mph 4 mph 97 % 0 in
12:37 34.2 °F 33.4 °F 29.8 in SSW 1 mph 6 mph 97 % 0 in
12:42 34.3 °F 33.6 °F 29.8 in WSW 3 mph 6 mph 97 % 0 in
12:57 34.9 °F 34.2 °F 29.8 in SW 6 mph 6 mph 97 % 0 in
13:02 34.9 °F 34.2 °F 29.8 in SW 2 mph 6 mph 97 % 0 in
13:12 35.2 °F 34.5 °F 29.8 in WSW 1 mph 6 mph 97 % 0 in
13:17 35.1 °F 34.3 °F 29.8 in West 3 mph 6 mph 97 % 0 in
13:22 35.2 °F 34.5 °F 29.8 in West 3 mph 6 mph 97 % 0 in
13:32 35.6 °F 34.9 °F 29.8 in WSW 1 mph 7 mph 97 % 0 in
13:47 36 °F 35.2 °F 29.8 in WSW 3 mph 7 mph 97 % 0 in
13:52 36 °F 35.2 °F 29.8 in WSW 2 mph 7 mph 97 % 0 in
14:12 36.5 °F 35.8 °F 29.8 in SW 3 mph 7 mph 97 % 0 in
14:17 36.7 °F 36 °F 29.8 in West 3 mph 8 mph 97 % 0 in
14:32 36.9 °F 35.6 °F 29.8 in West 7 mph 8 mph 95 % 0 in
14:47 37.2 °F 35.4 °F 29.8 in WSW 6 mph 8 mph 93 % 0 in
14:52 37.8 °F 36 °F 29.8 in West 2 mph 8 mph 93 % 0 in
14:57 37.9 °F 35.8 °F 29.8 in SW 4 mph 7 mph 92 % 0 in
15:02 37.9 °F 35.8 °F 29.8 in West 5 mph 7 mph 92 % 0 in
15:12 37.9 °F 35.6 °F 29.8 in West 1 mph 7 mph 91 % 0 in
15:17 37.9 °F 35.8 °F 29.8 in WSW 2 mph 7 mph 92 % 0 in
15:22 37.9 °F 35.8 °F 29.8 in WNW 3 mph 7 mph 92 % 0 in
15:32 37.4 °F 35.2 °F 29.8 in West 5 mph 6 mph 92 % 0 in
15:37 37.2 °F 35.1 °F 29.8 in SW 3 mph 7 mph 92 % 0 in
15:42 37.2 °F 35.1 °F 29.8 in West 3 mph 7 mph 92 % 0 in
15:52 37.2 °F 35.4 °F 29.8 in WSW 1 mph 7 mph 93 % 0 in
16:02 37 °F 35.2 °F 29.8 in West 2 mph 6 mph 93 % 0 in
16:07 37 °F 35.2 °F 29.8 in West 4 mph 6 mph 93 % 0 in
16:12 37 °F 35.2 °F 29.8 in WSW 2 mph 6 mph 93 % 0 in
16:17 36.9 °F 35.1 °F 29.8 in SW 2 mph 6 mph 93 % 0 in
16:22 36.9 °F 35.1 °F 29.8 in West 3 mph 6 mph 93 % 0 in
16:27 36.7 °F 34.9 °F 29.8 in West 3 mph 7 mph 93 % 0 in
16:32 36.7 °F 34.9 °F 29.8 in WSW 3 mph 7 mph 93 % 0 in
16:42 36.7 °F 34.9 °F 29.8 in WSW 6 mph 8 mph 93 % 0 in
16:52 36.7 °F 34.9 °F 29.8 in West 3 mph 9 mph 93 % 0 in
17:12 36.3 °F 34.5 °F 29.8 in West 3 mph 10 mph 93 % 0 in
17:17 36.1 °F 34.3 °F 29.8 in West 3 mph 8 mph 93 % 0 in
17:27 36 °F 34.2 °F 29.8 in West 3 mph 9 mph 93 % 0 in
17:32 36 °F 34.2 °F 29.8 in West 5 mph 9 mph 93 % 0 in
17:37 35.8 °F 34 °F 29.8 in WSW 6 mph 8 mph 93 % 0 in
18:02 35.6 °F 34 °F 29.8 in West 4 mph 7 mph 94 % 0 in
18:12 35.8 °F 34.2 °F 29.8 in WNW 6 mph 6 mph 94 % 0 in
18:17 35.8 °F 34.2 °F 29.8 in West 5 mph 5 mph 94 % 0 in
18:22 35.8 °F 34.2 °F 29.8 in WNW 5 mph 8 mph 94 % 0 in
18:32 35.6 °F 34 °F 29.8 in West 4 mph 9 mph 94 % 0 in
18:37 35.6 °F 34 °F 29.8 in WNW 3 mph 9 mph 94 % 0 in
18:42 35.6 °F 34 °F 29.8 in WNW 3 mph 10 mph 94 % 0 in
18:52 35.6 °F 34 °F 29.8 in West 4 mph 8 mph 94 % 0 in
18:57 35.6 °F 34 °F 29.8 in WNW 5 mph 8 mph 94 % 0 in
19:12 35.8 °F 34.2 °F 29.8 in West 2 mph 9 mph 94 % 0 in
19:17 35.6 °F 34 °F 29.8 in WNW 2 mph 7 mph 94 % 0 in
19:32 35.6 °F 34 °F 29.8 in WSW 4 mph 6 mph 94 % 0 in
19:42 35.8 °F 34.2 °F 29.8 in WSW 4 mph 6 mph 94 % 0 in
19:47 35.8 °F 34.2 °F 29.8 in West 7 mph 9 mph 94 % 0 in
20:02 35.8 °F 34.2 °F 29.8 in WSW 2 mph 7 mph 94 % 0 in
20:12 35.8 °F 34.2 °F 29.8 in WSW 3 mph 7 mph 94 % 0 in
20:17 35.8 °F 34.2 °F 29.8 in WSW 2 mph 4 mph 94 % 0 in
20:22 35.8 °F 34.2 °F 29.8 in West 3 mph 4 mph 94 % 0 in
20:27 35.6 °F 34 °F 29.8 in WNW 2 mph 4 mph 94 % 0 in
20:32 35.6 °F 34 °F 29.9 in WNW 1 mph 4 mph 94 % 0 in
20:42 35.8 °F 34.2 °F 29.9 in WNW 3 mph 4 mph 94 % 0 in
20:47 35.8 °F 34.2 °F 29.9 in West 1 mph 9 mph 94 % 0 in
20:52 35.8 °F 34.2 °F 29.9 in WNW 3 mph 9 mph 94 % 0 in
20:57 35.8 °F 34.2 °F 29.9 in WNW 6 mph 9 mph 94 % 0 in
21:02 35.8 °F 34.2 °F 29.9 in West 5 mph 9 mph 94 % 0 in
21:12 36 °F 34.3 °F 29.9 in West 2 mph 6 mph 94 % 0 in
21:17 36 °F 34.3 °F 29.9 in West 4 mph 5 mph 94 % 0.01 in
21:27 36.1 °F 34.5 °F 29.9 in WNW 4 mph 6 mph 94 % 0.01 in
21:32 36.3 °F 34.7 °F 29.9 in West 1 mph 6 mph 94 % 0.01 in
21:42 36.5 °F 34.9 °F 29.9 in Calm   6 mph 94 % 0.01 in
21:47 36.5 °F 34.9 °F 29.9 in WNW 2 mph 5 mph 94 % 0.01 in
21:57 36.7 °F 35.1 °F 29.9 in West 3 mph 8 mph 94 % 0.01 in
22:02 36.7 °F 35.1 °F 29.9 in NW 3 mph 8 mph 94 % 0.01 in
22:07 36.7 °F 34.9 °F 29.9 in WNW 5 mph 8 mph 93 % 0.01 in
22:12 36.9 °F 35.1 °F 29.9 in West 2 mph 8 mph 93 % 0.01 in
22:17 36.9 °F 35.1 °F 29.9 in West 1 mph 6 mph 93 % 0 in
22:22 36.9 °F 35.1 °F 29.9 in West 1 mph 6 mph 93 % 0 in
22:32 36.7 °F 34.9 °F 29.9 in Calm   5 mph 93 % 0 in
22:37 36.7 °F 34.9 °F 29.9 in WNW 3 mph 3 mph 93 % 0 in
22:42 36.7 °F 34.9 °F 29.9 in WNW 1 mph 3 mph 93 % 0 in
22:47 36.7 °F 34.9 °F 29.9 in Calm   3 mph 93 % 0 in
22:52 36.7 °F 34.9 °F 29.9 in Calm   3 mph 93 % 0 in
23:02 36.7 °F 34.9 °F 29.9 in Calm   2 mph 93 % 0 in
23:12 36.7 °F 34.9 °F 29.9 in West 1 mph 1 mph 93 % 0 in
23:17 36.7 °F 34.9 °F 29.9 in West 1 mph 1 mph 93 % 0 in
23:22 36.7 °F 34.9 °F 29.9 in Calm   1 mph 93 % 0 in
23:32 36.9 °F 35.1 °F 29.9 in Calm   2 mph 93 % 0 in
23:42 36.9 °F 35.1 °F 29.9 in West 1 mph 3 mph 93 % 0 in
23:47 37 °F 35.2 °F 29.9 in WNW 2 mph 3 mph 93 % 0 in
23:57 37 °F 35.2 °F 29.9 in West 2 mph 3 mph 93 % 0 in
Meteo18
Compliments of Weather Underground - 4 mb

Script developed by  Jim McMurry - jmcmurry@mwt.net Adapted for the template by  Wim van der Kuil - Leuven-Template.eu

You find our weather info also at:

European Weather Network

Weather Underground

Equipment we use:

Weather-station
Davis Vue

Weather-program
Meteohub

Weather-server
Raspberry PI 2 B+

Provider
1 and 1

Davis Vue

Meteohub

Raspberry PI 2 B+

1 and 1